メインページ
METAR-TAF:

METAR-TAF

空港 :

タシュケント, ウズベキスタン

タシュケント国際空港

緯度: 41-16N, 経度: 069-16E, 海抜: 489m

現時点の気象観測

当レポートは44分前の14:00(UTC)に作成
南/南西の風 6kt
気温 36°C
湿度 35%
気圧 1004 hPa
視程10km以上
1,500メートル以下は雲なし、積乱雲なし

METAR: UTTT 271400Z 20006KT CAVOK 36/18 Q1004 R08R/CLRD70 NOSIG

時間: 19:44 (14:44 UTC)

予報

当レポートは3時間44分前の11:00(UTC)に作成
予報は27日の 12時(UTC)から 28日の 12時(UTC)まで有効
西/南西の風 10kt
視程: 7000m
27日の 12時(UTC)から 27日の 24時(UTC)まで一時的に
北西の風 14kt、最大24ktの突風を伴う
高度6000ftの雲はほとんどない, 積乱雲.
確率 40% :
27日の 12時(UTC)から 27日の 24時(UTC)まで一時的に
高度5000ftの雲は散在している, 積乱雲.
高度10000ftの雲は散在している
激しい雷雨

TAF: UTTT 271100Z 2712/2812 24010KT 7000 NSC TX38/2810Z TEMPO 2712/2724 31014G24KT FEW060CB PROB40 TEMPO 2712/2724 TS SCT050CB SCT100

4,000以上の空港の気象観測と天気予報(METAR報とTAF報)

利用可能な観測所は地図上に黄色い丸と赤い丸で示す。

丸の上にカーソルを重ねると観測所名を参照できる。

次にクリックすると気象観測と天気予報を参照できる。

マップの切り替え:黒色「×」印の緑ボタンをクリックして拡大、「-」印の緑ボタンをクリックして縮小、緑色の三角印をクリックして隣りの地図に切り替え


METAR-TAF: